Time;durP1;ratioP1;P1;durP2;ratioP2;P2;SDS_P1;SDS_P2;PMS_P1;PMS_P2;Temp;Humidity;BMP_temperature;BMP_pressure;BME280_temperature;BME280_humidity;BME280_pressure;Samples;Min_cycle;Max_cycle;Signal;HPM_P1;HPM_P2
2020/12/22 00:01:55;;;;;;;2.87;2.30;;;;;;;8.33;83.44;100125.66;5053105;28;20225;-65
2020/12/22 00:04:24;;;;;;;2.10;1.80;;;;;;;8.33;83.56;100112.38;5046215;28;20218;-65
2020/12/22 00:06:55;;;;;;;3.37;1.97;;;;;;;8.34;83.13;100108.78;5052017;28;20204;-67
2020/12/22 00:09:21;;;;;;;2.00;1.70;;;;;;;8.34;83.42;100102.63;5046984;28;20226;-67
2020/12/22 00:11:47;;;;;;;1.83;1.47;;;;;;;8.34;84.06;100103.47;5053160;28;20217;-65
2020/12/22 00:14:13;;;;;;;2.00;1.57;;;;;;;8.33;84.10;100095.59;5053635;28;20208;-65
2020/12/22 00:16:39;;;;;;;2.07;1.40;;;;;;;8.33;83.89;100101.75;5058629;28;20194;-65
2020/12/22 00:19:05;;;;;;;2.07;1.50;;;;;;;8.35;84.50;100083.09;5051457;28;20221;-65
2020/12/22 00:21:32;;;;;;;1.27;1.13;;;;;;;8.36;84.26;100090.09;5051328;28;20574;-65
2020/12/22 00:23:59;;;;;;;1.40;1.13;;;;;;;8.37;84.15;100075.91;5048828;28;20206;-66
2020/12/22 00:26:25;;;;;;;1.37;1.27;;;;;;;8.38;84.13;100076.75;5050518;28;20625;-66
2020/12/22 00:28:51;;;;;;;1.57;1.10;;;;;;;8.39;84.17;100073.16;5050604;28;20544;-65
2020/12/22 00:31:17;;;;;;;1.10;1.00;;;;;;;8.39;84.10;100062.53;5050164;28;20228;-65
2020/12/22 00:33:44;;;;;;;0.80;0.80;;;;;;;8.40;84.86;100066.91;5050677;28;20217;-64
2020/12/22 00:36:10;;;;;;;0.90;0.90;;;;;;;8.39;84.89;100060.72;5052240;28;20730;-65
2020/12/22 00:38:36;;;;;;;1.13;0.93;;;;;;;8.41;84.63;100052.69;5051976;28;20234;-65
2020/12/22 00:41:03;;;;;;;2.87;0.90;;;;;;;8.41;85.39;100060.63;5052778;28;20255;-65
2020/12/22 00:43:29;;;;;;;1.20;0.90;;;;;;;8.41;85.32;100058.84;5051715;28;20681;-65
2020/12/22 00:45:55;;;;;;;1.70;0.90;;;;;;;8.42;85.04;100057.03;5054747;28;20206;-65
2020/12/22 00:48:21;;;;;;;1.83;0.90;;;;;;;8.42;85.60;100062.34;5053327;28;20221;-65
2020/12/22 00:50:47;;;;;;;1.27;0.80;;;;;;;8.42;85.55;100044.59;5054003;28;20621;-65
2020/12/22 00:53:13;;;;;;;1.00;0.83;;;;;;;8.43;85.17;100053.41;5053137;28;20631;-64
2020/12/22 00:55:39;;;;;;;1.20;0.90;;;;;;;8.44;85.62;100065.72;5053344;28;20700;-65
2020/12/22 00:58:06;;;;;;;1.07;0.83;;;;;;;8.44;85.36;100061.28;5051687;28;20230;-65
2020/12/22 01:00:32;;;;;;;0.80;0.70;;;;;;;8.45;85.11;100057.66;5053133;28;20201;-65
2020/12/22 01:02:59;;;;;;;0.77;0.70;;;;;;;8.48;85.61;100051.31;5051681;28;20208;-65
2020/12/22 01:05:25;;;;;;;1.67;0.77;;;;;;;8.50;85.50;100052.94;5051047;28;20212;-65
2020/12/22 01:07:51;;;;;;;1.13;0.80;;;;;;;8.52;86.02;100052.84;5052131;28;20622;-65
2020/12/22 01:10:17;;;;;;;0.60;0.60;;;;;;;8.53;85.67;100046.56;5051755;28;20225;-64
2020/12/22 01:12:43;;;;;;;1.03;0.70;;;;;;;8.55;85.81;100053.50;5057412;28;20232;-65
2020/12/22 01:15:10;;;;;;;0.60;0.60;;;;;;;8.58;86.14;100063.06;5057003;28;20232;-65
2020/12/22 01:17:36;;;;;;;0.50;0.50;;;;;;;8.61;85.67;100060.19;5052750;28;20266;-65
2020/12/22 01:20:03;;;;;;;0.63;0.60;;;;;;;8.64;85.72;100060.00;5055485;28;20205;-65
2020/12/22 01:22:29;;;;;;;0.50;0.50;;;;;;;8.67;85.73;100062.44;5050779;28;20204;-65
2020/12/22 01:24:55;;;;;;;1.27;0.50;;;;;;;8.71;85.94;100069.28;5052084;28;20213;-65
2020/12/22 01:27:21;;;;;;;0.70;0.60;;;;;;;8.77;86.47;100065.38;5057726;28;20575;-65
2020/12/22 01:29:47;;;;;;;0.50;0.50;;;;;;;8.80;86.27;100063.34;5071596;28;20224;-65
2020/12/22 01:32:13;;;;;;;0.73;0.53;;;;;;;8.84;86.68;100058.69;5067382;28;20232;-66
2020/12/22 01:34:39;;;;;;;0.40;0.40;;;;;;;8.87;86.73;100051.38;5069604;28;20220;-66
2020/12/22 01:37:11;;;;;;;0.60;0.60;;;;;;;8.87;85.87;100043.41;5067862;28;20283;-66
2020/12/22 01:39:37;;;;;;;1.07;0.53;;;;;;;8.89;85.97;100030.03;5056994;28;20221;-65
2020/12/22 01:42:07;;;;;;;0.50;0.50;;;;;;;8.90;86.65;100023.78;5067612;28;20197;-65
2020/12/22 01:44:33;;;;;;;0.77;0.50;;;;;;;8.93;86.46;100020.94;5037417;28;20205;-65
2020/12/22 01:46:59;;;;;;;0.40;0.40;;;;;;;8.94;86.27;100015.53;5063751;28;20211;-65
2020/12/22 01:49:28;;;;;;;0.40;0.40;;;;;;;8.94;86.25;100010.22;5052112;28;20278;-66
2020/12/22 01:51:56;;;;;;;0.50;0.50;;;;;;;8.93;86.20;99999.69;5061915;28;20240;-65
2020/12/22 01:54:23;;;;;;;0.40;0.40;;;;;;;8.94;86.65;100002.25;5071351;28;20209;-65
2020/12/22 01:56:49;;;;;;;0.47;0.40;;;;;;;8.96;86.17;99996.78;5062286;28;20197;-65
2020/12/22 01:59:17;;;;;;;0.40;0.40;;;;;;;8.98;86.48;99989.59;5050913;28;20240;-65
2020/12/22 02:01:43;;;;;;;2.17;0.43;;;;;;;8.99;86.46;99981.50;5050559;28;20631;-65
2020/12/22 02:04:10;;;;;;;0.70;0.30;;;;;;;9.01;86.75;99978.75;5051883;28;20300;-64
2020/12/22 02:06:37;;;;;;;0.97;0.30;;;;;;;9.02;86.54;99986.63;5051105;28;20206;-65
2020/12/22 02:09:05;;;;;;;0.30;0.20;;;;;;;9.07;86.12;99981.00;5051476;28;20282;-65
2020/12/22 02:11:33;;;;;;;0.40;0.30;;;;;;;9.07;86.59;99970.38;5050818;28;20233;-65
2020/12/22 02:14:00;;;;;;;0.77;0.30;;;;;;;9.10;87.05;99969.34;5051171;28;20197;-65
2020/12/22 02:16:27;;;;;;;0.20;0.20;;;;;;;9.14;86.75;99966.34;5050386;28;20202;-65
2020/12/22 02:18:54;;;;;;;0.30;0.30;;;;;;;9.15;86.89;99973.34;5059780;28;20243;-65
2020/12/22 02:21:21;;;;;;;0.50;0.23;;;;;;;9.19;86.83;99976.66;5070852;28;20212;-64
2020/12/22 02:23:49;;;;;;;0.30;0.30;;;;;;;9.22;86.38;99964.03;5070291;28;20205;-65
2020/12/22 02:26:15;;;;;;;0.97;0.30;;;;;;;9.26;86.57;99959.34;5071116;28;20221;-64
2020/12/22 02:28:41;;;;;;;0.20;0.20;;;;;;;9.31;86.79;99950.13;5070221;28;20220;-64
2020/12/22 02:31:07;;;;;;;0.50;0.30;;;;;;;9.35;87.07;99940.09;5059936;28;20692;-64
2020/12/22 02:33:33;;;;;;;0.20;0.20;;;;;;;9.39;86.64;99961.06;5051199;28;20229;-65
2020/12/22 02:35:59;;;;;;;0.37;0.37;;;;;;;9.43;86.28;99944.91;5054952;28;20201;-64
2020/12/22 02:38:26;;;;;;;0.93;0.27;;;;;;;9.46;86.70;99942.03;5041807;28;20226;-64
2020/12/22 02:40:52;;;;;;;0.73;0.40;;;;;;;9.51;86.78;99932.75;5055746;28;20205;-65
2020/12/22 02:43:18;;;;;;;0.40;0.20;;;;;;;9.55;86.43;99925.41;5056255;28;20204;-64
2020/12/22 02:45:45;;;;;;;0.37;0.30;;;;;;;9.59;86.97;99930.41;5053544;28;20212;-65
2020/12/22 02:48:12;;;;;;;1.40;0.30;;;;;;;9.59;86.53;99921.59;5055045;28;20316;-65
2020/12/22 02:50:38;;;;;;;0.23;0.23;;;;;;;9.62;86.41;99919.56;5054421;28;20624;-65
2020/12/22 02:53:05;;;;;;;0.23;0.23;;;;;;;9.65;87.08;99903.41;5040851;28;20255;-65
2020/12/22 02:55:32;;;;;;;0.20;0.20;;;;;;;9.66;86.87;99899.78;5054898;28;20205;-65
2020/12/22 02:57:58;;;;;;;1.10;0.30;;;;;;;9.70;86.56;99895.94;5053507;28;20736;-65
2020/12/22 03:00:25;;;;;;;0.10;0.10;;;;;;;9.73;86.74;99892.22;5078044;22;20244;-64
2020/12/22 03:02:52;;;;;;;0.20;0.20;;;;;;;9.74;86.94;99878.81;5053141;28;20303;-65
2020/12/22 03:05:18;;;;;;;0.20;0.20;;;;;;;9.77;86.51;99876.88;5053894;28;20210;-65
2020/12/22 03:07:45;;;;;;;0.10;0.10;;;;;;;9.81;86.27;99873.06;5052538;28;20210;-65
2020/12/22 03:10:13;;;;;;;0.20;0.20;;;;;;;9.82;87.01;99890.72;5026414;28;20228;-65
2020/12/22 03:12:40;;;;;;;0.20;0.20;;;;;;;9.82;86.35;99872.94;5032602;28;20226;-65
2020/12/22 03:15:07;;;;;;;1.03;0.40;;;;;;;9.84;86.81;99873.69;5033463;28;20217;-65
2020/12/22 03:17:34;;;;;;;0.20;0.20;;;;;;;9.84;86.78;99870.19;5033091;28;20214;-65
2020/12/22 03:20:00;;;;;;;0.30;0.20;;;;;;;9.89;86.29;99871.53;5032103;28;20230;-65
2020/12/22 03:22:26;;;;;;;0.73;0.30;;;;;;;9.92;86.28;99862.47;5026817;28;20202;-65
2020/12/22 03:24:52;;;;;;;0.13;0.13;;;;;;;9.96;86.07;99863.94;5029497;28;20202;-65
2020/12/22 03:27:18;;;;;;;0.33;0.20;;;;;;;9.97;86.08;99861.19;5022160;28;20202;-65
2020/12/22 03:29:45;;;;;;;0.27;0.20;;;;;;;10.02;86.44;99876.81;5033992;28;20241;-64
2020/12/22 03:32:11;;;;;;;0.30;0.30;;;;;;;10.06;86.26;99875.59;5031487;28;20230;-64
2020/12/22 03:34:37;;;;;;;0.17;0.17;;;;;;;10.06;86.30;99881.78;5033995;28;20685;-64
2020/12/22 03:37:03;;;;;;;3.43;0.37;;;;;;;10.08;86.67;99879.84;5031707;28;20643;-64
2020/12/22 03:39:29;;;;;;;1.80;0.20;;;;;;;10.13;86.64;99866.22;5033795;28;20698;-64
2020/12/22 03:41:55;;;;;;;1.30;0.20;;;;;;;10.17;86.37;99867.69;5032938;28;20210;-63
2020/12/22 03:44:21;;;;;;;0.30;0.20;;;;;;;10.20;86.67;99874.66;5033772;28;20212;-64
2020/12/22 03:46:48;;;;;;;0.10;0.10;;;;;;;10.24;86.40;99878.75;5033135;28;20220;-64
2020/12/22 03:49:15;;;;;;;0.47;0.20;;;;;;;10.27;86.25;99868.72;5032475;28;20222;-64
2020/12/22 03:51:41;;;;;;;0.10;0.10;;;;;;;10.29;86.19;99868.63;5032611;28;20230;-64
2020/12/22 03:54:07;;;;;;;0.10;0.10;;;;;;;10.31;86.24;99880.00;5034921;28;20206;-64
2020/12/22 03:56:33;;;;;;;0.87;0.27;;;;;;;10.32;86.13;99877.22;5035541;28;20238;-64
2020/12/22 03:59:11;;;;;;;0.20;0.20;;;;;;;10.34;86.43;99869.13;5032285;28;20248;-65
2020/12/22 04:01:37;;;;;;;2.20;0.30;;;;;;;10.36;85.97;99878.72;5032966;28;20206;-64
2020/12/22 04:04:04;;;;;;;0.20;0.20;;;;;;;10.38;86.11;99876.78;5032698;28;20582;-64
2020/12/22 04:06:30;;;;;;;0.30;0.20;;;;;;;10.40;86.08;99869.50;5033524;28;20685;-64
2020/12/22 04:08:56;;;;;;;1.10;0.20;;;;;;;10.43;86.05;99863.09;5032594;28;20230;-64
2020/12/22 04:11:22;;;;;;;0.40;0.40;;;;;;;10.45;86.24;99855.84;5032711;28;20213;-64
2020/12/22 04:13:48;;;;;;;1.17;0.50;;;;;;;10.46;86.06;99859.38;5032444;28;20210;-64
2020/12/22 04:16:14;;;;;;;0.20;0.20;;;;;;;10.48;86.33;99870.75;5032588;28;20296;-64
2020/12/22 04:18:41;;;;;;;0.53;0.33;;;;;;;10.50;86.02;99869.69;5032664;28;20236;-64
2020/12/22 04:21:08;;;;;;;0.10;0.10;;;;;;;10.54;86.08;99870.31;5031898;28;20695;-64
2020/12/22 04:23:34;;;;;;;0.60;0.30;;;;;;;10.56;86.14;99868.38;5032172;28;20206;-63
2020/12/22 04:26:00;;;;;;;0.20;0.20;;;;;;;10.57;86.16;99854.94;5032768;28;20208;-64
2020/12/22 04:28:26;;;;;;;1.83;0.70;;;;;;;10.59;86.34;99852.16;5032523;28;20604;-63
2020/12/22 04:30:52;;;;;;;1.33;0.53;;;;;;;10.60;86.36;99854.69;5033167;28;20206;-65
2020/12/22 04:33:18;;;;;;;0.40;0.17;;;;;;;10.64;86.25;99857.97;5031561;28;20233;-65
2020/12/22 04:35:44;;;;;;;0.20;0.20;;;;;;;10.64;86.46;99860.66;5033083;28;20218;-65
2020/12/22 04:38:11;;;;;;;0.20;0.20;;;;;;;10.66;86.46;99861.38;5031626;28;20210;-64
2020/12/22 04:40:37;;;;;;;0.73;0.30;;;;;;;10.68;86.40;99856.78;5032515;28;20238;-65
2020/12/22 04:43:04;;;;;;;1.63;0.63;;;;;;;10.68;86.49;99867.44;5031599;28;20206;-65
2020/12/22 04:45:30;;;;;;;0.90;0.40;;;;;;;10.70;86.57;99862.84;5032068;28;20214;-64
2020/12/22 04:47:57;;;;;;;0.10;0.10;;;;;;;10.72;87.19;99868.91;5031809;28;20206;-64
2020/12/22 04:50:24;;;;;;;0.17;0.10;;;;;;;10.78;86.69;99860.44;5032149;28;20222;-64
2020/12/22 04:52:52;;;;;;;0.27;0.23;;;;;;;10.79;86.75;99864.78;5031819;28;20321;-64
2020/12/22 04:55:19;;;;;;;0.23;0.23;;;;;;;10.81;86.74;99872.66;5031573;28;20213;-65
2020/12/22 04:57:48;;;;;;;0.83;0.40;;;;;;;10.83;86.93;99862.75;5031983;28;20214;-64
2020/12/22 05:00:14;;;;;;;0.50;0.40;;;;;;;10.85;86.91;99861.66;5031894;28;20238;-64
2020/12/22 05:02:42;;;;;;;0.50;0.30;;;;;;;10.86;86.95;99860.72;5031089;28;20745;-64
2020/12/22 05:05:09;;;;;;;0.30;0.20;;;;;;;10.85;86.46;99856.34;5031911;28;20313;-64
2020/12/22 05:07:35;;;;;;;0.33;0.13;;;;;;;10.87;87.05;99856.22;5031557;28;20658;-64
2020/12/22 05:10:05;;;;;;;1.07;0.47;;;;;;;10.89;87.07;99860.47;5031914;28;20682;-63
2020/12/22 05:12:32;;;;;;;0.10;0.10;;;;;;;10.94;87.11;99865.41;5031785;28;20232;-64
2020/12/22 05:15:00;;;;;;;0.30;0.20;;;;;;;10.94;87.00;99855.63;5031339;28;20228;-64
2020/12/22 05:17:26;;;;;;;0.10;0.10;;;;;;;10.99;87.04;99873.91;5031723;28;20264;-65
2020/12/22 05:19:53;;;;;;;1.77;0.50;;;;;;;11.01;86.94;99856.84;5030878;28;20226;-64
2020/12/22 05:22:21;;;;;;;0.50;0.23;;;;;;;11.02;86.97;99866.53;5030877;28;20236;-64
2020/12/22 05:24:49;;;;;;;1.23;0.40;;;;;;;11.04;87.03;99861.09;5032055;28;20206;-64
2020/12/22 05:27:17;;;;;;;0.37;0.30;;;;;;;11.05;86.96;99870.78;5031498;28;20211;-64
2020/12/22 05:29:45;;;;;;;0.63;0.40;;;;;;;11.08;86.96;99868.75;5031142;28;20332;-64
2020/12/22 05:32:11;;;;;;;0.23;0.23;;;;;;;11.10;86.94;99869.47;5029406;28;20234;-64
2020/12/22 05:34:38;;;;;;;0.20;0.20;;;;;;;11.12;86.99;99877.31;5031031;28;20650;-64
2020/12/22 05:37:08;;;;;;;0.20;0.20;;;;;;;11.13;86.86;99868.34;5029955;28;20229;-64
2020/12/22 05:39:37;;;;;;;0.77;0.53;;;;;;;11.15;86.92;99877.09;5031064;28;20237;-64
2020/12/22 05:42:12;;;;;;;0.33;0.20;;;;;;;11.19;86.96;99875.03;5030627;28;20210;-64
2020/12/22 05:44:41;;;;;;;0.20;0.20;;;;;;;11.22;87.00;99864.16;5020269;28;20663;-64
2020/12/22 05:47:08;;;;;;;0.70;0.70;;;;;;;11.24;87.03;99878.19;5031382;28;20199;-64
2020/12/22 05:49:34;;;;;;;0.43;0.43;;;;;;;11.27;87.02;99875.31;5030891;28;20638;-64
2020/12/22 05:52:07;;;;;;;0.83;0.33;;;;;;;11.30;87.17;99870.56;5030482;28;20237;-64
2020/12/22 05:54:37;;;;;;;0.50;0.40;;;;;;;11.33;86.96;99872.13;5032036;28;20211;-64
2020/12/22 05:57:06;;;;;;;0.40;0.40;;;;;;;11.37;86.99;99878.94;5030276;28;20210;-64
2020/12/22 05:59:32;;;;;;;0.80;0.50;;;;;;;11.40;87.02;99866.22;5031312;28;20233;-64
2020/12/22 06:01:58;;;;;;;0.60;0.40;;;;;;;11.45;87.21;99873.84;5030659;28;20202;-64
2020/12/22 06:04:26;;;;;;;0.50;0.50;;;;;;;11.49;86.93;99885.94;5031244;28;20218;-64
2020/12/22 06:06:52;;;;;;;0.70;0.60;;;;;;;11.54;87.16;99867.78;5031364;28;20568;-64
2020/12/22 06:09:18;;;;;;;1.00;0.60;;;;;;;11.57;86.94;99862.19;5032930;28;20793;-65
2020/12/22 06:11:47;;;;;;;0.50;0.50;;;;;;;11.63;86.99;99871.53;5034129;28;20207;-64
2020/12/22 06:14:23;;;;;;;0.70;0.70;;;;;;;11.65;86.84;99873.09;5035189;28;20213;-64
2020/12/22 06:16:50;;;;;;;0.80;0.60;;;;;;;11.66;86.71;99877.44;5021538;28;20670;-64
2020/12/22 06:19:16;;;;;;;1.20;0.63;;;;;;;11.70;86.80;99878.06;5034117;28;20222;-64
2020/12/22 06:21:43;;;;;;;0.80;0.80;;;;;;;11.76;86.76;99888.28;5034280;28;20293;-64
2020/12/22 06:24:13;;;;;;;0.93;0.70;;;;;;;11.79;86.88;99872.88;5035045;28;20204;-64
2020/12/22 06:26:39;;;;;;;1.10;0.90;;;;;;;11.81;86.65;99870.94;5034866;28;20670;-64
2020/12/22 06:29:24;;;;;;;0.60;0.60;;;;;;;11.83;86.45;99878.78;5034145;28;20222;-64
2020/12/22 06:31:50;;;;;;;0.70;0.70;;;;;;;11.85;86.53;99882.19;5034467;28;20742;-65
2020/12/22 06:34:23;;;;;;;0.90;0.73;;;;;;;11.86;86.53;99878.56;5034598;28;20300;-65
2020/12/22 06:36:57;;;;;;;1.27;1.17;;;;;;;11.87;86.58;99872.25;5034545;28;20212;-65
2020/12/22 06:39:40;;;;;;;0.73;0.73;;;;;;;11.91;86.79;99878.19;5035004;28;20240;-65
2020/12/22 06:42:06;;;;;;;0.87;0.87;;;;;;;11.94;86.87;99877.94;5052536;28;20197;-64
2020/12/22 06:44:33;;;;;;;1.07;1.00;;;;;;;11.96;86.58;99892.00;5038243;28;20299;-65
2020/12/22 06:47:01;;;;;;;1.10;1.10;;;;;;;11.98;86.81;99882.91;5033917;28;20208;-65
2020/12/22 06:49:52;;;;;;;1.30;1.20;;;;;;;12.01;86.54;99884.47;5034565;28;20606;-65
2020/12/22 06:52:33;;;;;;;1.47;1.33;;;;;;;12.03;86.60;99894.03;5020378;28;20312;-64
2020/12/22 06:54:59;;;;;;;1.60;1.50;;;;;;;12.07;86.81;99894.66;5034722;28;20236;-65
2020/12/22 06:57:41;;;;;;;1.63;1.53;;;;;;;12.10;86.45;99910.41;5032734;28;20336;-65
2020/12/22 07:00:07;;;;;;;1.60;1.50;;;;;;;12.15;86.50;99894.88;5028515;28;20261;-64
2020/12/22 07:02:35;;;;;;;1.80;1.70;;;;;;;12.17;86.49;99908.97;5033180;28;20202;-64
2020/12/22 07:05:02;;;;;;;2.20;2.00;;;;;;;12.19;86.54;99906.97;5032487;28;20202;-64
2020/12/22 07:07:56;;;;;;;2.60;2.40;;;;;;;12.23;86.55;99911.09;5031703;28;20762;-65
2020/12/22 07:10:23;;;;;;;3.73;3.40;;;;;;;12.27;86.38;99920.56;5025272;28;20234;-64
2020/12/22 07:12:50;;;;;;;4.13;3.83;;;;;;;12.31;86.65;99915.81;5028678;28;20298;-64
2020/12/22 07:15:18;;;;;;;4.90;4.30;;;;;;;12.36;86.44;99921.66;5026427;28;20214;-65
2020/12/22 07:17:44;;;;;;;5.67;5.10;;;;;;;12.42;86.16;99918.44;5031564;28;20206;-65
2020/12/22 07:20:10;;;;;;;5.90;4.90;;;;;;;12.48;86.21;99923.28;5030166;28;20294;-65
2020/12/22 07:22:37;;;;;;;4.93;4.50;;;;;;;12.52;85.96;99924.75;5031981;28;20263;-65
2020/12/22 07:25:04;;;;;;;5.93;4.67;;;;;;;12.56;85.83;99939.53;5032236;28;20198;-65
2020/12/22 07:27:31;;;;;;;4.83;4.20;;;;;;;12.59;86.20;99938.41;5032723;28;20597;-64
2020/12/22 07:29:57;;;;;;;3.83;3.53;;;;;;;12.62;85.79;99928.34;5032189;28;20226;-65
2020/12/22 07:32:24;;;;;;;3.60;3.30;;;;;;;12.65;86.15;99935.25;5031554;28;20275;-65
2020/12/22 07:34:50;;;;;;;4.07;3.67;;;;;;;12.68;85.72;99943.00;5033114;28;20588;-64
2020/12/22 07:37:16;;;;;;;2.93;2.63;;;;;;;12.71;85.54;99956.13;5030643;28;20209;-64
2020/12/22 07:39:42;;;;;;;2.30;2.20;;;;;;;12.73;85.24;99962.16;5032347;28;20233;-65
2020/12/22 07:42:11;;;;;;;3.60;2.10;;;;;;;12.76;85.34;99961.91;5025866;28;20219;-64
2020/12/22 07:44:37;;;;;;;2.57;2.37;;;;;;;12.77;85.27;99961.78;5022455;28;20210;-64
2020/12/22 07:47:04;;;;;;;2.90;2.70;;;;;;;12.79;85.43;99969.69;5019891;28;20236;-65
2020/12/22 07:49:30;;;;;;;2.70;2.50;;;;;;;12.81;84.97;99959.72;5031508;28;20292;-64
2020/12/22 07:51:56;;;;;;;2.63;2.37;;;;;;;12.82;84.90;99970.28;5032319;28;20651;-65
2020/12/22 07:54:25;;;;;;;2.73;2.53;;;;;;;12.82;84.79;99970.28;5031625;28;20214;-65
2020/12/22 07:56:52;;;;;;;4.73;3.23;;;;;;;12.82;85.06;99969.44;5032920;28;20248;-66
2020/12/22 07:59:19;;;;;;;2.97;2.40;;;;;;;12.80;84.68;99977.56;5022879;28;20230;-66
2020/12/22 08:01:47;;;;;;;2.97;2.37;;;;;;;12.81;84.79;99981.09;5022713;28;20221;-65
2020/12/22 08:04:17;;;;;;;2.47;2.20;;;;;;;12.79;84.89;99980.38;5027971;28;20207;-66
2020/12/22 08:06:53;;;;;;;3.23;2.90;;;;;;;12.78;84.96;99992.03;5016836;28;20218;-66
2020/12/22 08:09:22;;;;;;;4.07;3.13;;;;;;;12.74;84.95;99980.75;5013233;28;20750;-66
2020/12/22 08:11:51;;;;;;;2.37;2.20;;;;;;;12.71;85.06;99991.72;5022506;28;20236;-65
2020/12/22 08:14:19;;;;;;;3.83;2.53;;;;;;;12.70;85.04;99991.84;5032309;28;20293;-64
2020/12/22 08:16:46;;;;;;;2.60;1.73;;;;;;;12.66;85.62;99979.69;5030327;28;20226;-64
2020/12/22 08:19:13;;;;;;;3.13;1.93;;;;;;;12.65;85.42;99999.38;5019087;28;20593;-66
2020/12/22 08:21:40;;;;;;;2.63;1.93;;;;;;;12.62;85.39;99987.09;5021475;28;20210;-65
2020/12/22 08:24:06;;;;;;;3.10;2.13;;;;;;;12.59;85.49;99987.34;5026972;28;20267;-65
2020/12/22 08:26:32;;;;;;;8.40;2.43;;;;;;;12.58;85.84;99984.81;5033593;28;20216;-65
2020/12/22 08:29:02;;;;;;;2.87;2.20;;;;;;;12.57;86.07;100002.66;5031924;28;20726;-65
2020/12/22 08:31:33;;;;;;;2.63;2.43;;;;;;;12.56;85.84;100000.94;5031353;28;20210;-65
2020/12/22 08:34:03;;;;;;;4.87;3.70;;;;;;;12.57;85.97;100008.00;5025000;28;20633;-65
2020/12/22 08:36:29;;;;;;;4.27;3.87;;;;;;;12.59;86.25;100022.09;5018717;28;20210;-65
2020/12/22 08:39:13;;;;;;;4.80;4.40;;;;;;;12.61;86.11;100016.63;5020346;28;20756;-65
2020/12/22 08:41:41;;;;;;;3.60;3.30;;;;;;;12.64;86.52;100021.72;5023037;28;20198;-65
2020/12/22 08:44:09;;;;;;;3.47;3.20;;;;;;;12.66;86.61;100022.44;5013258;28;20770;-65
2020/12/22 08:46:36;;;;;;;3.97;3.67;;;;;;;12.67;86.61;100029.47;5013806;28;20245;-65
2020/12/22 08:49:10;;;;;;;3.73;3.43;;;;;;;12.67;86.37;100037.50;5025077;28;20291;-65
2020/12/22 08:51:36;;;;;;;1.50;1.40;;;;;;;12.68;86.44;100042.72;5017308;28;20203;-65
2020/12/22 08:54:03;;;;;;;3.27;2.50;;;;;;;12.69;86.50;100046.25;5020748;28;20234;-65
2020/12/22 08:56:29;;;;;;;1.50;0.93;;;;;;;12.71;86.56;100038.94;5024994;28;20689;-65
2020/12/22 08:58:57;;;;;;;1.27;1.00;;;;;;;12.70;86.38;100043.44;5025119;28;20623;-65
2020/12/22 09:01:25;;;;;;;2.00;0.90;;;;;;;12.67;86.44;100058.88;5021758;28;20285;-65
2020/12/22 09:03:55;;;;;;;1.00;0.90;;;;;;;12.67;86.58;100054.38;5021454;28;20634;-65
2020/12/22 09:06:35;;;;;;;0.60;0.60;;;;;;;12.64;86.32;100073.31;5020461;28;20703;-66
2020/12/22 09:09:02;;;;;;;1.00;0.77;;;;;;;12.62;86.38;100075.25;5019167;28;20222;-65
2020/12/22 09:11:28;;;;;;;0.67;0.60;;;;;;;12.61;86.12;100078.91;5018792;28;20230;-65
2020/12/22 09:14:01;;;;;;;1.17;0.60;;;;;;;12.60;86.14;100087.03;5012687;28;20226;-65
2020/12/22 09:16:59;;;;;;;3.90;0.60;;;;;;;12.61;86.36;100083.41;5015946;28;20583;-65
2020/12/22 09:19:39;;;;;;;2.03;0.50;;;;;;;12.63;86.05;100094.81;5012257;28;20237;-66
2020/12/22 09:22:06;;;;;;;1.73;0.50;;;;;;;12.65;86.03;100093.72;5013399;28;20590;-65
2020/12/22 09:24:33;;;;;;;0.90;0.50;;;;;;;12.67;86.04;100104.28;5013222;28;20202;-65
2020/12/22 09:27:02;;;;;;;0.83;0.60;;;;;;;12.68;85.67;100106.00;5018060;28;20217;-65
2020/12/22 09:29:35;;;;;;;1.73;0.40;;;;;;;12.68;85.61;100106.84;5012520;28;20715;-66
2020/12/22 09:32:01;;;;;;;3.40;0.50;;;;;;;12.71;85.94;100116.44;5016113;28;20204;-65
2020/12/22 09:34:31;;;;;;;1.70;0.40;;;;;;;12.74;85.77;100118.81;5010621;28;20207;-66
2020/12/22 09:36:58;;;;;;;2.33;0.60;;;;;;;12.76;85.49;100119.56;5013503;28;20202;-66
2020/12/22 09:39:26;;;;;;;3.73;0.70;;;;;;;12.78;85.43;100122.97;5019090;28;20238;-66
2020/12/22 09:41:53;;;;;;;1.40;0.50;;;;;;;12.79;85.36;100111.31;5029633;28;20202;-66
2020/12/22 09:44:19;;;;;;;0.87;0.57;;;;;;;12.81;85.57;100117.38;5028442;28;20226;-65
2020/12/22 09:46:46;;;;;;;0.83;0.50;;;;;;;12.82;85.48;100111.91;5016487;28;20211;-66
2020/12/22 09:49:12;;;;;;;1.20;0.57;;;;;;;12.83;85.43;100099.41;5033956;28;20229;-66
2020/12/22 09:51:39;;;;;;;2.20;0.60;;;;;;;12.84;85.23;100114.47;5030469;28;20206;-66
2020/12/22 09:54:05;;;;;;;0.53;0.50;;;;;;;12.84;84.91;100117.13;5029163;28;20230;-65
2020/12/22 09:56:31;;;;;;;2.20;0.80;;;;;;;12.83;85.10;100124.28;5023535;28;20213;-65
2020/12/22 09:58:58;;;;;;;1.50;1.10;;;;;;;12.85;84.37;100113.50;5011436;28;20680;-66
2020/12/22 10:01:25;;;;;;;1.10;0.73;;;;;;;12.85;84.17;100125.03;5015118;28;20203;-66
2020/12/22 10:03:52;;;;;;;2.00;1.23;;;;;;;12.87;84.45;100130.25;5012290;28;20208;-65
2020/12/22 10:06:19;;;;;;;5.40;4.90;;;;;;;12.88;83.85;100129.28;5027963;28;20573;-66
2020/12/22 10:08:47;;;;;;;3.10;2.10;;;;;;;12.89;83.60;100138.16;5026924;28;20811;-65
2020/12/22 10:11:13;;;;;;;2.83;2.53;;;;;;;12.89;83.78;100136.31;5027631;28;20210;-66
2020/12/22 10:13:40;;;;;;;3.77;2.50;;;;;;;12.90;83.28;100143.34;5029067;28;20721;-66
2020/12/22 10:16:07;;;;;;;2.50;2.00;;;;;;;12.91;83.68;100126.31;5025606;28;20356;-66
2020/12/22 10:18:33;;;;;;;2.60;1.90;;;;;;;12.91;83.29;100129.00;5013011;28;20203;-66
2020/12/22 10:21:07;;;;;;;2.03;1.40;;;;;;;12.90;83.47;100121.97;5013144;28;20225;-65
2020/12/22 10:23:34;;;;;;;3.23;2.30;;;;;;;12.91;83.31;100120.97;5016015;28;20202;-65
2020/12/22 10:26:03;;;;;;;5.70;4.23;;;;;;;12.93;83.84;100127.06;5016031;28;20205;-66
2020/12/22 10:28:30;;;;;;;4.93;3.23;;;;;;;12.95;83.90;100124.25;5015515;28;20225;-66
2020/12/22 10:30:56;;;;;;;6.57;4.50;;;;;;;12.95;83.49;100130.47;5009846;28;20203;-66
2020/12/22 10:33:22;;;;;;;3.10;2.17;;;;;;;12.95;83.89;100129.59;5020467;28;20812;-65
2020/12/22 10:35:49;;;;;;;1.50;1.40;;;;;;;12.96;83.60;100142.84;5024111;28;20225;-66
2020/12/22 10:38:15;;;;;;;1.23;1.13;;;;;;;12.96;84.10;100133.97;5028388;28;20666;-66
2020/12/22 10:40:41;;;;;;;1.23;1.13;;;;;;;12.97;83.52;100136.53;5025407;28;20240;-65
2020/12/22 10:43:08;;;;;;;2.13;1.10;;;;;;;12.98;84.12;100138.22;5026489;28;20236;-66
2020/12/22 10:45:34;;;;;;;1.40;1.30;;;;;;;12.99;83.92;100139.09;5021882;28;20208;-66
2020/12/22 10:48:00;;;;;;;1.97;1.80;;;;;;;13.01;83.91;100134.47;5016368;28;20271;-66
2020/12/22 10:50:27;;;;;;;2.40;1.50;;;;;;;13.01;83.59;100139.81;5025083;28;20291;-65
2020/12/22 10:52:53;;;;;;;2.33;1.33;;;;;;;13.00;83.90;100136.28;5027073;28;20279;-65
2020/12/22 10:55:19;;;;;;;1.50;1.40;;;;;;;13.00;83.62;100136.28;5029232;28;20263;-65
2020/12/22 10:57:45;;;;;;;1.50;1.40;;;;;;;13.00;83.61;100138.13;5031588;28;20212;-65
2020/12/22 11:00:12;;;;;;;1.40;1.30;;;;;;;12.99;83.33;100147.09;5024334;28;20654;-65
2020/12/22 11:02:39;;;;;;;1.50;1.40;;;;;;;13.00;82.82;100162.16;5027374;28;20229;-65
2020/12/22 11:05:05;;;;;;;1.27;1.10;;;;;;;13.00;82.91;100159.50;5031874;28;20210;-65
2020/12/22 11:07:36;;;;;;;1.73;1.40;;;;;;;12.99;82.95;100169.34;5026297;28;20676;-65
2020/12/22 11:10:04;;;;;;;2.20;1.10;;;;;;;13.00;82.29;100170.19;5025373;28;20284;-65
2020/12/22 11:12:30;;;;;;;1.40;0.93;;;;;;;13.00;82.23;100165.69;5017073;28;20223;-65
2020/12/22 11:14:56;;;;;;;0.90;0.90;;;;;;;12.99;82.09;100164.00;5023136;28;20306;-65
2020/12/22 11:17:23;;;;;;;2.47;1.10;;;;;;;12.99;81.86;100179.19;5027013;28;20686;-65
2020/12/22 11:19:49;;;;;;;0.90;0.90;;;;;;;12.97;81.48;100165.09;5016104;28;20583;-65
2020/12/22 11:22:15;;;;;;;1.37;0.80;;;;;;;12.94;81.67;100170.69;5012772;28;20213;-64
2020/12/22 11:24:41;;;;;;;2.23;0.90;;;;;;;12.92;81.17;100189.50;5014661;28;20579;-65
2020/12/22 11:27:07;;;;;;;1.13;0.67;;;;;;;12.93;81.32;100179.66;5015257;28;20215;-65
2020/12/22 11:29:33;;;;;;;1.60;1.50;;;;;;;12.96;80.97;100174.06;5014852;28;20229;-65
2020/12/22 11:31:59;;;;;;;1.53;0.90;;;;;;;12.98;81.04;100182.81;5031756;28;20256;-65
2020/12/22 11:34:26;;;;;;;1.17;0.80;;;;;;;12.99;80.40;100185.38;5022869;28;20684;-65